sensor_id;sensor_type;location;lat;lon;timestamp;pressure;altitude;pressure_sealevel;temperature;humidity
35704;BME280;21820;51.112;13.762;2023-02-01T00:00:09;99191.88;;;21.14;56.28
35704;BME280;21820;51.112;13.762;2023-02-01T00:02:35;99195.91;;;21.09;57.91
35704;BME280;21820;51.112;13.762;2023-02-01T00:05:05;99203.22;;;21.05;58.13
35704;BME280;21820;51.112;13.762;2023-02-01T00:07:30;99194.34;;;20.89;58.23
35704;BME280;21820;51.112;13.762;2023-02-01T00:09:56;99220.16;;;21.01;58.71
35704;BME280;21820;51.112;13.762;2023-02-01T00:12:21;99209.28;;;20.96;58.63
35704;BME280;21820;51.112;13.762;2023-02-01T00:14:46;99217.03;;;20.88;57.80
35704;BME280;21820;51.112;13.762;2023-02-01T00:17:13;99214.69;;;20.85;56.89
35704;BME280;21820;51.112;13.762;2023-02-01T00:19:38;99216.09;;;20.80;56.41
35704;BME280;21820;51.112;13.762;2023-02-01T00:22:04;99214.59;;;20.77;57.15
35704;BME280;21820;51.112;13.762;2023-02-01T00:24:29;99211.88;;;20.69;58.33
35704;BME280;21820;51.112;13.762;2023-02-01T00:26:55;99209.28;;;20.69;57.79
35704;BME280;21820;51.112;13.762;2023-02-01T00:29:21;99214.50;;;20.69;57.34
35704;BME280;21820;51.112;13.762;2023-02-01T00:31:46;99206.91;;;20.66;56.89
35704;BME280;21820;51.112;13.762;2023-02-01T00:34:15;99214.91;;;20.64;57.20
35704;BME280;21820;51.112;13.762;2023-02-01T00:36:41;99219.59;;;20.61;58.83
35704;BME280;21820;51.112;13.762;2023-02-01T00:39:07;99214.66;;;20.58;58.34
35704;BME280;21820;51.112;13.762;2023-02-01T00:41:33;99210.13;;;20.60;57.57
35704;BME280;21820;51.112;13.762;2023-02-01T00:43:58;99207.66;;;20.58;57.16
35704;BME280;21820;51.112;13.762;2023-02-01T00:46:24;99209.44;;;20.58;57.16
35704;BME280;21820;51.112;13.762;2023-02-01T00:48:51;99211.09;;;20.59;56.99
35704;BME280;21820;51.112;13.762;2023-02-01T00:51:20;99213.72;;;20.59;58.60
35704;BME280;21820;51.112;13.762;2023-02-01T00:53:46;99210.25;;;20.58;59.18
35704;BME280;21820;51.112;13.762;2023-02-01T00:56:12;99211.09;;;20.59;57.95
35704;BME280;21820;51.112;13.762;2023-02-01T00:58:37;99206.53;;;20.61;57.63
35704;BME280;21820;51.112;13.762;2023-02-01T01:01:23;99201.50;;;20.50;58.70
35704;BME280;21820;51.112;13.762;2023-02-01T01:03:55;99209.13;;;20.61;59.15
35704;BME280;21820;51.112;13.762;2023-02-01T01:06:26;99210.81;;;20.62;58.86
35704;BME280;21820;51.112;13.762;2023-02-01T01:08:53;99211.63;;;20.62;58.59
35704;BME280;21820;51.112;13.762;2023-02-01T01:11:21;99209.69;;;20.64;59.22
35704;BME280;21820;51.112;13.762;2023-02-01T01:13:48;99214.09;;;20.64;57.68
35704;BME280;21820;51.112;13.762;2023-02-01T01:16:14;99208.59;;;20.67;60.54
35704;BME280;21820;51.112;13.762;2023-02-01T01:18:39;99209.94;;;20.71;59.32
35704;BME280;21820;51.112;13.762;2023-02-01T01:21:05;99210.91;;;20.70;57.94
35704;BME280;21820;51.112;13.762;2023-02-01T01:23:31;99209.28;;;20.69;59.55
35704;BME280;21820;51.112;13.762;2023-02-01T01:25:57;99215.44;;;20.68;58.43
35704;BME280;21820;51.112;13.762;2023-02-01T01:28:22;99210.50;;;20.65;58.50
35704;BME280;21820;51.112;13.762;2023-02-01T01:30:48;99208.59;;;20.67;59.58
35704;BME280;21820;51.112;13.762;2023-02-01T01:33:13;99204.69;;;20.71;58.43
35704;BME280;21820;51.112;13.762;2023-02-01T01:35:38;99210.63;;;20.73;58.16
35704;BME280;21820;51.112;13.762;2023-02-01T01:38:04;99215.69;;;20.74;58.95
35704;BME280;21820;51.112;13.762;2023-02-01T01:40:30;99212.94;;;20.76;59.33
35704;BME280;21820;51.112;13.762;2023-02-01T01:42:56;99211.00;;;20.78;58.53
35704;BME280;21820;51.112;13.762;2023-02-01T01:47:52;99204.41;;;20.84;59.52
35704;BME280;21820;51.112;13.762;2023-02-01T01:50:23;99207.16;;;20.82;59.83
35704;BME280;21820;51.112;13.762;2023-02-01T01:52:51;99209.63;;;20.84;59.82
35704;BME280;21820;51.112;13.762;2023-02-01T01:55:22;99208.78;;;20.83;59.66
35704;BME280;21820;51.112;13.762;2023-02-01T01:57:57;99203.56;;;20.83;59.91
35704;BME280;21820;51.112;13.762;2023-02-01T02:00:25;99203.03;;;20.80;58.15
35704;BME280;21820;51.112;13.762;2023-02-01T02:02:57;99198.34;;;20.83;59.76
35704;BME280;21820;51.112;13.762;2023-02-01T02:05:23;99195.88;;;20.82;59.48
35704;BME280;21820;51.112;13.762;2023-02-01T02:07:51;99200.25;;;20.81;58.58
35704;BME280;21820;51.112;13.762;2023-02-01T02:10:18;99183.81;;;20.71;58.68
35704;BME280;21820;51.112;13.762;2023-02-01T02:12:45;99190.41;;;20.75;59.99
35704;BME280;21820;51.112;13.762;2023-02-01T02:15:13;99201.63;;;20.85;59.72
35704;BME280;21820;51.112;13.762;2023-02-01T02:31:47;99186.06;;;20.93;59.05
35704;BME280;21820;51.112;13.762;2023-02-01T02:43:08;99163.66;;;20.91;59.77
35704;BME280;21820;51.112;13.762;2023-02-01T02:46:30;99161.69;;;20.93;59.55
35704;BME280;21820;51.112;13.762;2023-02-01T02:49:29;99157.47;;;20.92;59.82
35704;BME280;21820;51.112;13.762;2023-02-01T02:52:02;99160.91;;;20.92;59.00
35704;BME280;21820;51.112;13.762;2023-02-01T02:54:50;99165.31;;;20.92;59.34
35704;BME280;21820;51.112;13.762;2023-02-01T02:57:30;99164.84;;;20.96;58.99
35704;BME280;21820;51.112;13.762;2023-02-01T03:00:18;99168.88;;;21.00;58.88
35704;BME280;21820;51.112;13.762;2023-02-01T03:03:03;99168.19;;;20.98;58.79
35704;BME280;21820;51.112;13.762;2023-02-01T03:05:49;99159.50;;;20.98;58.93
35704;BME280;21820;51.112;13.762;2023-02-01T03:08:22;99158.72;;;20.97;59.39
35704;BME280;21820;51.112;13.762;2023-02-01T03:11:08;99166.25;;;21.00;59.52
35704;BME280;21820;51.112;13.762;2023-02-01T03:13:56;99163.63;;;21.00;58.73
35704;BME280;21820;51.112;13.762;2023-02-01T03:16:26;99170.78;;;20.98;58.62
35704;BME280;21820;51.112;13.762;2023-02-01T03:21:45;99184.25;;;21.03;59.29
35704;BME280;21820;51.112;13.762;2023-02-01T03:26:44;99176.28;;;20.95;58.53
35704;BME280;21820;51.112;13.762;2023-02-01T03:29:19;99176.28;;;20.95;59.02
35704;BME280;21820;51.112;13.762;2023-02-01T03:31:47;99177.53;;;20.91;58.90
35704;BME280;21820;51.112;13.762;2023-02-01T03:34:13;99168.06;;;20.90;59.26
35704;BME280;21820;51.112;13.762;2023-02-01T03:36:44;99164.16;;;20.94;59.10
35704;BME280;21820;51.112;13.762;2023-02-01T03:39:29;99161.56;;;20.94;59.14
35704;BME280;21820;51.112;13.762;2023-02-01T03:41:59;99162.84;;;20.90;58.38
35704;BME280;21820;51.112;13.762;2023-02-01T03:44:32;99168.88;;;20.91;59.16
35704;BME280;21820;51.112;13.762;2023-02-01T03:47:08;99165.91;;;20.86;58.75
35704;BME280;21820;51.112;13.762;2023-02-01T03:49:38;99162.44;;;20.85;58.80
35704;BME280;21820;51.112;13.762;2023-02-01T03:52:07;99157.13;;;20.77;59.34
35704;BME280;21820;51.112;13.762;2023-02-01T03:54:35;99159.84;;;20.85;57.87
35704;BME280;21820;51.112;13.762;2023-02-01T03:57:05;99147.06;;;20.82;58.62
35704;BME280;21820;51.112;13.762;2023-02-01T03:59:32;99158.16;;;20.84;58.19
35704;BME280;21820;51.112;13.762;2023-02-01T04:01:57;99152.16;;;20.84;58.90
35704;BME280;21820;51.112;13.762;2023-02-01T04:04:23;99146.78;;;20.85;58.65
35704;BME280;21820;51.112;13.762;2023-02-01T04:06:49;99147.72;;;20.84;58.87
35704;BME280;21820;51.112;13.762;2023-02-01T04:09:15;99148.69;;;20.83;58.60
35704;BME280;21820;51.112;13.762;2023-02-01T04:11:41;99140.31;;;20.80;57.73
35704;BME280;21820;51.112;13.762;2023-02-01T04:14:06;99138.53;;;20.80;58.15
35704;BME280;21820;51.112;13.762;2023-02-01T04:16:32;99139.22;;;20.82;58.04
35704;BME280;21820;51.112;13.762;2023-02-01T04:18:58;99131.25;;;20.84;58.14
35704;BME280;21820;51.112;13.762;2023-02-01T04:21:25;99131.81;;;20.77;58.51
35704;BME280;21820;51.112;13.762;2023-02-01T04:23:50;99136.75;;;20.81;58.92
35704;BME280;21820;51.112;13.762;2023-02-01T04:26:16;99120.41;;;20.79;58.82
35704;BME280;21820;51.112;13.762;2023-02-01T04:28:41;99118.63;;;20.79;58.99
35704;BME280;21820;51.112;13.762;2023-02-01T04:31:07;99118.47;;;20.81;57.97
35704;BME280;21820;51.112;13.762;2023-02-01T04:33:32;99128.25;;;20.79;57.28
35704;BME280;21820;51.112;13.762;2023-02-01T04:35:57;99114.38;;;20.51;57.42
35704;BME280;21820;51.112;13.762;2023-02-01T04:38:23;99099.56;;;20.42;56.74
35704;BME280;21820;51.112;13.762;2023-02-01T04:40:48;99105.06;;;20.66;56.55
35704;BME280;21820;51.112;13.762;2023-02-01T04:43:14;99098.75;;;20.86;55.93
35704;BME280;21820;51.112;13.762;2023-02-01T04:45:39;99101.59;;;21.20;54.73
35704;BME280;21820;51.112;13.762;2023-02-01T04:48:05;99101.88;;;21.52;54.45
35704;BME280;21820;51.112;13.762;2023-02-01T04:50:30;99112.13;;;21.80;53.07
35704;BME280;21820;51.112;13.762;2023-02-01T04:52:56;99109.97;;;22.02;52.38
35704;BME280;21820;51.112;13.762;2023-02-01T04:55:21;99087.81;;;22.22;51.57
35704;BME280;21820;51.112;13.762;2023-02-01T04:57:46;99093.81;;;22.40;51.49
35704;BME280;21820;51.112;13.762;2023-02-01T05:00:12;99092.88;;;22.49;51.05
35704;BME280;21820;51.112;13.762;2023-02-01T05:02:38;99084.56;;;22.53;50.56
35704;BME280;21820;51.112;13.762;2023-02-01T05:05:04;99072.50;;;22.60;50.43
35704;BME280;21820;51.112;13.762;2023-02-01T05:07:30;99077.25;;;22.73;50.60
35704;BME280;21820;51.112;13.762;2023-02-01T05:09:55;99063.47;;;22.63;50.46
35704;BME280;21820;51.112;13.762;2023-02-01T05:12:20;99069.72;;;22.70;50.31
35704;BME280;21820;51.112;13.762;2023-02-01T05:15:21;99063.19;;;22.74;50.89
35704;BME280;21820;51.112;13.762;2023-02-01T05:17:46;99056.97;;;22.75;50.74
35704;BME280;21820;51.112;13.762;2023-02-01T05:20:11;99060.09;;;22.78;50.75
35704;BME280;21820;51.112;13.762;2023-02-01T05:22:37;99050.09;;;22.74;50.53
35704;BME280;21820;51.112;13.762;2023-02-01T05:25:02;99049.28;;;22.73;50.28
35704;BME280;21820;51.112;13.762;2023-02-01T05:27:29;99049.28;;;22.73;50.67
35704;BME280;21820;51.112;13.762;2023-02-01T05:29:55;99049.13;;;22.83;50.35
35704;BME280;21820;51.112;13.762;2023-02-01T05:32:21;99043.69;;;22.76;50.87
35704;BME280;21820;51.112;13.762;2023-02-01T05:34:46;99047.47;;;22.74;50.72
35704;BME280;21820;51.112;13.762;2023-02-01T05:37:11;99047.13;;;22.69;50.89
35704;BME280;21820;51.112;13.762;2023-02-01T05:39:36;99047.56;;;22.56;51.06
35704;BME280;21820;51.112;13.762;2023-02-01T05:42:02;99046.78;;;22.56;50.29
35704;BME280;21820;51.112;13.762;2023-02-01T05:44:27;99048.00;;;22.44;49.95
35704;BME280;21820;51.112;13.762;2023-02-01T05:46:53;99052.03;;;22.30;49.50
35704;BME280;21820;51.112;13.762;2023-02-01T05:49:18;99055.59;;;22.21;50.01
35704;BME280;21820;51.112;13.762;2023-02-01T05:51:43;99043.63;;;22.19;49.71
35704;BME280;21820;51.112;13.762;2023-02-01T05:54:09;99053.72;;;22.06;49.81
35704;BME280;21820;51.112;13.762;2023-02-01T05:56:35;99044.63;;;21.92;50.33
35704;BME280;21820;51.112;13.762;2023-02-01T05:59:00;99048.72;;;21.86;50.80
35704;BME280;21820;51.112;13.762;2023-02-01T06:01:25;99042.44;;;21.79;50.67
35704;BME280;21820;51.112;13.762;2023-02-01T06:03:51;99035.16;;;21.73;51.34
35704;BME280;21820;51.112;13.762;2023-02-01T06:06:16;99037.66;;;21.75;51.49
35704;BME280;21820;51.112;13.762;2023-02-01T06:08:41;99032.28;;;21.76;51.95
35704;BME280;21820;51.112;13.762;2023-02-01T06:11:07;99035.16;;;21.73;52.59
35704;BME280;21820;51.112;13.762;2023-02-01T06:13:33;99035.47;;;21.70;53.24
35704;BME280;21820;51.112;13.762;2023-02-01T06:15:58;99028.56;;;21.61;53.18
35704;BME280;21820;51.112;13.762;2023-02-01T06:18:24;99028.50;;;21.53;53.05
35704;BME280;21820;51.112;13.762;2023-02-01T06:20:55;99036.94;;;21.47;53.43
35704;BME280;21820;51.112;13.762;2023-02-01T06:23:21;99031.88;;;21.46;53.49
35704;BME280;21820;51.112;13.762;2023-02-01T06:25:59;99021.75;;;21.25;53.55
35704;BME280;21820;51.112;13.762;2023-02-01T06:28:25;99020.84;;;21.34;54.26
35704;BME280;21820;51.112;13.762;2023-02-01T06:30:50;99033.69;;;21.28;54.03
35704;BME280;21820;51.112;13.762;2023-02-01T06:33:16;99019.16;;;21.25;53.72
35704;BME280;21820;51.112;13.762;2023-02-01T06:35:42;99036.91;;;21.22;53.93
35704;BME280;21820;51.112;13.762;2023-02-01T06:38:12;99029.50;;;21.17;54.36
35704;BME280;21820;51.112;13.762;2023-02-01T06:40:38;99015.84;;;21.06;54.23
35704;BME280;21820;51.112;13.762;2023-02-01T06:43:04;99033.56;;;21.12;54.77
35704;BME280;21820;51.112;13.762;2023-02-01T06:45:30;99035.34;;;21.11;54.70
35704;BME280;21820;51.112;13.762;2023-02-01T06:47:55;99034.66;;;21.09;54.93
35704;BME280;21820;51.112;13.762;2023-02-01T06:50:21;99031.41;;;21.07;54.97
35704;BME280;21820;51.112;13.762;2023-02-01T06:52:46;99021.06;;;21.06;54.80
35704;BME280;21820;51.112;13.762;2023-02-01T06:55:12;99025.88;;;21.10;54.65
35704;BME280;21820;51.112;13.762;2023-02-01T06:57:38;99027.81;;;21.08;54.83
35704;BME280;21820;51.112;13.762;2023-02-01T07:00:04;99014.44;;;21.11;54.57
35704;BME280;21820;51.112;13.762;2023-02-01T07:02:30;99013.44;;;21.12;54.25
35704;BME280;21820;51.112;13.762;2023-02-01T07:04:55;99005.91;;;21.09;54.84
35704;BME280;21820;51.112;13.762;2023-02-01T07:07:20;99009.94;;;21.21;54.33
35704;BME280;21820;51.112;13.762;2023-02-01T07:09:47;99020.41;;;21.21;54.65
35704;BME280;21820;51.112;13.762;2023-02-01T07:12:13;99020.09;;;21.24;54.42
35704;BME280;21820;51.112;13.762;2023-02-01T07:14:38;99014.88;;;21.24;53.93
35704;BME280;21820;51.112;13.762;2023-02-01T07:17:03;99009.34;;;21.27;53.97
35704;BME280;21820;51.112;13.762;2023-02-01T07:19:28;99013.25;;;21.23;54.22
35704;BME280;21820;51.112;13.762;2023-02-01T07:21:54;99018.16;;;21.26;53.93
35704;BME280;21820;51.112;13.762;2023-02-01T07:24:19;99007.56;;;21.28;53.81
35704;BME280;21820;51.112;13.762;2023-02-01T07:26:45;99005.75;;;21.28;54.40
35704;BME280;21820;51.112;13.762;2023-02-01T07:29:10;99007.41;;;21.29;54.34
35704;BME280;21820;51.112;13.762;2023-02-01T07:31:35;99010.06;;;21.37;53.77
35704;BME280;21820;51.112;13.762;2023-02-01T07:34:00;99000.59;;;21.36;54.04
35704;BME280;21820;51.112;13.762;2023-02-01T07:36:28;98986.16;;;21.32;53.38
35704;BME280;21820;51.112;13.762;2023-02-01T07:38:53;98998.72;;;21.46;53.50
35704;BME280;21820;51.112;13.762;2023-02-01T07:41:18;99000.84;;;21.51;53.97
35704;BME280;21820;51.112;13.762;2023-02-01T07:43:44;98997.78;;;21.55;52.96
35704;BME280;21820;51.112;13.762;2023-02-01T07:46:10;99003.31;;;21.52;53.94
35704;BME280;21820;51.112;13.762;2023-02-01T07:48:35;99001.06;;;21.57;53.44
35704;BME280;21820;51.112;13.762;2023-02-01T07:51:07;98995.66;;;21.59;53.68
35704;BME280;21820;51.112;13.762;2023-02-01T07:53:33;99003.00;;;21.55;53.15
35704;BME280;21820;51.112;13.762;2023-02-01T07:56:00;98995.81;;;21.57;53.18
35704;BME280;21820;51.112;13.762;2023-02-01T07:58:26;98990.06;;;21.54;53.78
35704;BME280;21820;51.112;13.762;2023-02-01T08:00:52;98989.28;;;21.53;53.71
35704;BME280;21820;51.112;13.762;2023-02-01T08:03:36;98991.22;;;21.51;53.02
35704;BME280;21820;51.112;13.762;2023-02-01T08:06:02;98983.38;;;21.51;53.27
35704;BME280;21820;51.112;13.762;2023-02-01T08:08:27;98981.78;;;21.58;52.76
35704;BME280;21820;51.112;13.762;2023-02-01T08:11:00;98980.44;;;21.54;53.62
35704;BME280;21820;51.112;13.762;2023-02-01T08:13:26;98975.22;;;21.54;53.70
35704;BME280;21820;51.112;13.762;2023-02-01T08:15:51;98979.47;;;21.55;53.21
35704;BME280;21820;51.112;13.762;2023-02-01T08:18:16;98979.81;;;21.60;52.87
35704;BME280;21820;51.112;13.762;2023-02-01T08:20:43;98967.38;;;21.54;53.07
35704;BME280;21820;51.112;13.762;2023-02-01T08:23:11;98974.31;;;21.63;52.63
35704;BME280;21820;51.112;13.762;2023-02-01T08:25:37;98952.34;;;21.56;52.92
35704;BME280;21820;51.112;13.762;2023-02-01T08:28:04;98960.88;;;21.58;53.12
35704;BME280;21820;51.112;13.762;2023-02-01T08:30:29;98978.06;;;21.69;52.47
35704;BME280;21820;51.112;13.762;2023-02-01T08:32:55;98959.25;;;21.65;52.72
35704;BME280;21820;51.112;13.762;2023-02-01T08:35:20;98958.59;;;21.63;52.71
35704;BME280;21820;51.112;13.762;2023-02-01T08:37:45;98950.09;;;21.61;53.28
35704;BME280;21820;51.112;13.762;2023-02-01T08:40:11;98951.88;;;21.61;53.47
35704;BME280;21820;51.112;13.762;2023-02-01T08:42:38;98967.72;;;21.59;53.48
35704;BME280;21820;51.112;13.762;2023-02-01T08:45:19;98964.44;;;21.57;53.44
35704;BME280;21820;51.112;13.762;2023-02-01T08:47:45;98950.41;;;21.58;53.13
35704;BME280;21820;51.112;13.762;2023-02-01T08:50:13;98941.56;;;21.59;52.79
35704;BME280;21820;51.112;13.762;2023-02-01T08:52:38;98948.44;;;21.60;53.53
35704;BME280;21820;51.112;13.762;2023-02-01T08:55:05;98945.97;;;21.59;53.28
35704;BME280;21820;51.112;13.762;2023-02-01T08:57:32;98942.91;;;21.63;52.96
35704;BME280;21820;51.112;13.762;2023-02-01T08:59:57;98942.91;;;21.63;53.52
35704;BME280;21820;51.112;13.762;2023-02-01T09:02:23;98939.00;;;21.67;52.45
35704;BME280;21820;51.112;13.762;2023-02-01T09:04:48;98932.94;;;21.67;52.81
35704;BME280;21820;51.112;13.762;2023-02-01T09:07:13;98917.34;;;21.57;52.74
35704;BME280;21820;51.112;13.762;2023-02-01T09:09:39;98940.78;;;21.67;52.72
35704;BME280;21820;51.112;13.762;2023-02-01T09:12:05;98943.25;;;21.68;52.64
35704;BME280;21820;51.112;13.762;2023-02-01T09:14:30;98921.66;;;21.66;52.91
35704;BME280;21820;51.112;13.762;2023-02-01T09:16:56;98939.31;;;21.64;52.95
35704;BME280;21820;51.112;13.762;2023-02-01T09:19:21;98934.41;;;21.61;53.36
35704;BME280;21820;51.112;13.762;2023-02-01T09:21:47;98941.56;;;21.59;53.32
35704;BME280;21820;51.112;13.762;2023-02-01T09:24:12;98935.66;;;21.57;53.50
35704;BME280;21820;51.112;13.762;2023-02-01T09:26:38;98936.66;;;21.56;53.74
35704;BME280;21820;51.112;13.762;2023-02-01T09:29:03;98931.41;;;21.56;53.38
35704;BME280;21820;51.112;13.762;2023-02-01T09:31:31;98939.94;;;21.58;52.84
35704;BME280;21820;51.112;13.762;2023-02-01T09:33:56;98934.41;;;21.61;53.46
35704;BME280;21820;51.112;13.762;2023-02-01T09:36:22;98926.91;;;21.66;53.22
35704;BME280;21820;51.112;13.762;2023-02-01T09:38:48;98933.91;;;21.66;52.63
35704;BME280;21820;51.112;13.762;2023-02-01T09:41:35;98935.38;;;21.68;53.32
35704;BME280;21820;51.112;13.762;2023-02-01T09:44:43;98949.78;;;21.64;53.07
35704;BME280;21820;51.112;13.762;2023-02-01T09:47:16;98947.81;;;21.66;52.85
35704;BME280;21820;51.112;13.762;2023-02-01T09:50:08;98942.41;;;21.60;53.25
35704;BME280;21820;51.112;13.762;2023-02-01T09:52:40;98947.06;;;21.48;52.83
35704;BME280;21820;51.112;13.762;2023-02-01T09:55:16;98968.84;;;21.57;52.83
35704;BME280;21820;51.112;13.762;2023-02-01T09:57:55;98969.16;;;21.54;53.66
35704;BME280;21820;51.112;13.762;2023-02-01T10:00:31;98969.00;;;21.55;53.49
35704;BME280;21820;51.112;13.762;2023-02-01T10:02:59;98976.84;;;21.55;53.72
35704;BME280;21820;51.112;13.762;2023-02-01T10:11:04;98998.13;;;21.60;53.57
35704;BME280;21820;51.112;13.762;2023-02-01T10:13:43;99002.09;;;21.64;52.83
35704;BME280;21820;51.112;13.762;2023-02-01T10:27:18;99010.69;;;21.57;53.73
35704;BME280;21820;51.112;13.762;2023-02-01T10:29:49;98984.66;;;21.47;53.46
35704;BME280;21820;51.112;13.762;2023-02-01T10:32:20;99002.03;;;21.56;53.73
35704;BME280;21820;51.112;13.762;2023-02-01T10:34:51;98998.28;;;21.59;53.24
35704;BME280;21820;51.112;13.762;2023-02-01T10:37:34;98988.91;;;21.48;52.89
35704;BME280;21820;51.112;13.762;2023-02-01T10:40:21;98993.38;;;21.56;53.32
35704;BME280;21820;51.112;13.762;2023-02-01T10:42:49;98989.56;;;21.50;53.38
35704;BME280;21820;51.112;13.762;2023-02-01T10:45:20;99002.09;;;21.64;53.38
35704;BME280;21820;51.112;13.762;2023-02-01T10:47:48;99008.94;;;21.65;53.58
35704;BME280;21820;51.112;13.762;2023-02-01T10:50:29;99008.31;;;21.63;52.95
35704;BME280;21820;51.112;13.762;2023-02-01T10:53:15;99003.22;;;21.62;53.28
35704;BME280;21820;51.112;13.762;2023-02-01T11:00:57;99019.41;;;21.65;52.90
35704;BME280;21820;51.112;13.762;2023-02-01T11:03:42;99027.78;;;21.69;53.13
35704;BME280;21820;51.112;13.762;2023-02-01T11:08:50;99018.09;;;21.61;53.55
35704;BME280;21820;51.112;13.762;2023-02-01T11:11:16;99024.97;;;21.62;53.03
35704;BME280;21820;51.112;13.762;2023-02-01T11:13:42;99025.63;;;21.64;53.00
35704;BME280;21820;51.112;13.762;2023-02-01T11:16:13;99015.50;;;21.61;53.56
35704;BME280;21820;51.112;13.762;2023-02-01T11:18:40;99024.97;;;21.62;52.81
35704;BME280;21820;51.112;13.762;2023-02-01T11:21:09;99019.72;;;21.62;53.37
35704;BME280;21820;51.112;13.762;2023-02-01T11:23:41;99024.97;;;21.62;53.55
35704;BME280;21820;51.112;13.762;2023-02-01T11:26:20;99023.69;;;21.66;53.65
35704;BME280;21820;51.112;13.762;2023-02-01T11:28:57;99021.06;;;21.66;53.59
35704;BME280;21820;51.112;13.762;2023-02-01T11:31:25;99013.22;;;21.66;53.44
35704;BME280;21820;51.112;13.762;2023-02-01T11:34:04;99012.56;;;21.64;52.99
35704;BME280;21820;51.112;13.762;2023-02-01T11:36:32;98998.81;;;21.62;53.72
35704;BME280;21820;51.112;13.762;2023-02-01T11:42:12;99006.97;;;21.59;53.57
35704;BME280;21820;51.112;13.762;2023-02-01T11:44:40;98990.91;;;21.54;53.55
35704;BME280;21820;51.112;13.762;2023-02-01T11:47:39;98999.44;;;21.56;53.61
35704;BME280;21820;51.112;13.762;2023-02-01T11:50:11;98988.44;;;21.53;53.71
35704;BME280;21820;51.112;13.762;2023-02-01T12:11:28;98969.91;;;21.72;51.79
35704;BME280;21820;51.112;13.762;2023-02-01T12:19:41;98967.72;;;21.59;52.99
35704;BME280;21820;51.112;13.762;2023-02-01T12:30:56;98954.19;;;21.64;52.95
35704;BME280;21820;51.112;13.762;2023-02-01T12:33:55;98948.16;;;21.63;52.84
35704;BME280;21820;51.112;13.762;2023-02-01T12:39:28;98960.75;;;21.68;53.18
35704;BME280;21820;51.112;13.762;2023-02-01T12:45:07;98949.78;;;21.64;53.58
35704;BME280;21820;51.112;13.762;2023-02-01T12:47:34;98953.06;;;21.66;53.13
35704;BME280;21820;51.112;13.762;2023-02-01T12:52:40;98948.16;;;21.63;53.50
35704;BME280;21820;51.112;13.762;2023-02-01T12:57:43;98942.56;;;21.58;53.73
35704;BME280;21820;51.112;13.762;2023-02-01T13:00:41;98946.81;;;21.59;53.57
35704;BME280;21820;51.112;13.762;2023-02-01T13:06:02;98932.72;;;21.60;53.41
35704;BME280;21820;51.112;13.762;2023-02-01T13:08:50;98933.41;;;21.62;53.23
35704;BME280;21820;51.112;13.762;2023-02-01T13:11:26;98936.03;;;21.62;52.96
35704;BME280;21820;51.112;13.762;2023-02-01T13:17:04;98943.72;;;21.64;53.62
35704;BME280;21820;51.112;13.762;2023-02-01T13:22:19;98927.81;;;21.57;53.86
35704;BME280;21820;51.112;13.762;2023-02-01T13:27:16;98922.28;;;21.60;53.35
35704;BME280;21820;51.112;13.762;2023-02-01T13:30:00;98920.97;;;21.56;53.42
35704;BME280;21820;51.112;13.762;2023-02-01T13:32:48;98925.00;;;21.51;53.95
35704;BME280;21820;51.112;13.762;2023-02-01T13:43:29;98907.53;;;21.51;53.67
35704;BME280;21820;51.112;13.762;2023-02-01T13:46:05;98912.28;;;21.56;53.63
35704;BME280;21820;51.112;13.762;2023-02-01T13:48:38;98918.34;;;21.56;53.84
35704;BME280;21820;51.112;13.762;2023-02-01T13:51:06;98905.94;;;21.58;53.32
35704;BME280;21820;51.112;13.762;2023-02-01T13:53:34;98895.72;;;21.47;53.46
35704;BME280;21820;51.112;13.762;2023-02-01T13:56:23;98893.63;;;21.51;53.46
35704;BME280;21820;51.112;13.762;2023-02-01T13:58:50;98914.75;;;21.57;53.57
35704;BME280;21820;51.112;13.762;2023-02-01T14:03:58;98898.69;;;21.52;53.67
35704;BME280;21820;51.112;13.762;2023-02-01T14:21:50;98878.06;;;21.41;54.22
35704;BME280;21820;51.112;13.762;2023-02-01T14:26:55;98892.63;;;21.52;53.63
35704;BME280;21820;51.112;13.762;2023-02-01T14:29:25;98896.75;;;21.54;53.37
35704;BME280;21820;51.112;13.762;2023-02-01T14:37:10;98888.25;;;21.60;53.94
35704;BME280;21820;51.112;13.762;2023-02-01T14:47:49;98881.38;;;21.51;53.78
35704;BME280;21820;51.112;13.762;2023-02-01T15:06:39;98875.63;;;21.48;53.58
35704;BME280;21820;51.112;13.762;2023-02-01T15:09:18;98879.44;;;21.53;54.14
35704;BME280;21820;51.112;13.762;2023-02-01T15:11:54;98857.81;;;21.43;53.57
35704;BME280;21820;51.112;13.762;2023-02-01T15:14:21;98870.44;;;21.56;54.15
35704;BME280;21820;51.112;13.762;2023-02-01T15:16:46;98873.88;;;21.56;53.63
35704;BME280;21820;51.112;13.762;2023-02-01T15:19:19;98864.38;;;21.55;53.91
35704;BME280;21820;51.112;13.762;2023-02-01T15:21:49;98863.75;;;21.53;54.18
35704;BME280;21820;51.112;13.762;2023-02-01T15:26:49;98843.09;;;21.50;53.79
35704;BME280;21820;51.112;13.762;2023-02-01T15:29:14;98839.34;;;21.45;54.13
35704;BME280;21820;51.112;13.762;2023-02-01T15:31:50;98827.22;;;21.44;54.19
35704;BME280;21820;51.112;13.762;2023-02-01T15:34:17;98839.50;;;21.43;53.63
35704;BME280;21820;51.112;13.762;2023-02-01T15:36:44;98823.66;;;21.45;54.25
35704;BME280;21820;51.112;13.762;2023-02-01T15:41:56;98809.06;;;21.42;54.04
35704;BME280;21820;51.112;13.762;2023-02-01T15:46:55;98789.16;;;21.41;53.69
35704;BME280;21820;51.112;13.762;2023-02-01T15:49:30;98800.97;;;21.53;53.36
35704;BME280;21820;51.112;13.762;2023-02-01T15:51:58;98800.66;;;21.56;53.15
35704;BME280;21820;51.112;13.762;2023-02-01T15:54:35;98787.06;;;21.53;53.67
35704;BME280;21820;51.112;13.762;2023-02-01T15:57:03;98799.66;;;21.57;53.61
35704;BME280;21820;51.112;13.762;2023-02-01T15:59:42;98768.56;;;21.46;54.04
35704;BME280;21820;51.112;13.762;2023-02-01T16:02:51;98782.50;;;21.55;53.50